createdAt,value
2022-11-22T00:00:20.216Z,17.90
2022-11-22T00:01:20.187Z,17.20
2022-11-22T00:02:20.291Z,17.60
2022-11-22T00:03:20.191Z,16.90
2022-11-22T00:04:20.140Z,19.30
2022-11-22T00:05:20.146Z,19.00
2022-11-22T00:06:20.118Z,18.60
2022-11-22T00:07:20.108Z,18.40
2022-11-22T00:08:20.097Z,17.50
2022-11-22T00:09:20.082Z,17.40
2022-11-22T00:10:20.094Z,17.50
2022-11-22T00:11:20.052Z,17.00
2022-11-22T00:12:20.050Z,17.50
2022-11-22T00:13:20.048Z,17.60
2022-11-22T00:14:20.025Z,16.10
2022-11-22T00:15:20.048Z,16.90
2022-11-22T00:16:20.012Z,16.60
2022-11-22T00:17:19.994Z,16.90
2022-11-22T00:18:20.003Z,17.20
2022-11-22T00:19:19.966Z,16.60
2022-11-22T00:20:19.985Z,17.90
2022-11-22T00:21:19.942Z,15.70
2022-11-22T00:22:19.939Z,16.10
2022-11-22T00:23:19.928Z,16.10
2022-11-22T00:24:19.922Z,17.90
2022-11-22T00:25:19.940Z,16.40
2022-11-22T00:26:19.903Z,16.10
2022-11-22T00:27:19.883Z,16.60
2022-11-22T00:28:19.872Z,16.40
2022-11-22T00:29:19.872Z,16.70
2022-11-22T00:30:19.943Z,17.80
2022-11-22T00:31:19.836Z,16.30
2022-11-22T00:32:19.822Z,15.80
2022-11-22T00:33:19.818Z,16.30
2022-11-22T00:34:19.807Z,16.70
2022-11-22T00:35:19.830Z,17.20
2022-11-22T00:36:19.780Z,16.70
2022-11-22T00:37:19.770Z,17.30
2022-11-22T00:38:19.765Z,17.50
2022-11-22T00:39:19.752Z,17.70
2022-11-22T00:40:19.776Z,16.30
2022-11-22T00:41:19.731Z,18.80
2022-11-22T00:42:19.730Z,17.30
2022-11-22T00:43:19.713Z,17.30
2022-11-22T00:44:19.698Z,18.30
2022-11-22T00:45:19.712Z,18.00
2022-11-22T00:46:19.679Z,17.30
2022-11-22T00:47:19.712Z,18.10
2022-11-22T00:48:19.670Z,17.90
2022-11-22T00:49:19.644Z,17.20
2022-11-22T00:50:19.640Z,17.90
2022-11-22T00:51:19.633Z,18.80
2022-11-22T00:52:19.610Z,18.60
2022-11-22T00:53:19.596Z,17.60
2022-11-22T00:54:19.600Z,18.20
2022-11-22T00:55:19.604Z,16.50
2022-11-22T00:56:19.567Z,18.30
2022-11-22T00:57:19.572Z,18.40
2022-11-22T00:58:19.545Z,17.80
2022-11-22T00:59:19.557Z,19.00
2022-11-22T01:00:19.548Z,18.10
2022-11-22T01:01:19.613Z,18.30
2022-11-22T01:02:19.497Z,18.40
2022-11-22T01:03:19.493Z,17.50
2022-11-22T01:04:19.498Z,17.40
2022-11-22T01:05:19.481Z,18.30
2022-11-22T01:06:19.457Z,17.40
2022-11-22T01:07:19.482Z,19.20
2022-11-22T01:08:19.455Z,18.40
2022-11-22T01:09:19.420Z,18.20
2022-11-22T01:10:19.429Z,17.60
2022-11-22T01:11:19.403Z,18.10
2022-11-22T01:12:19.387Z,18.80
2022-11-22T01:13:19.383Z,19.60
2022-11-22T01:14:19.379Z,18.80
2022-11-22T01:15:19.418Z,18.10
2022-11-22T01:16:19.354Z,18.40
2022-11-22T01:17:19.347Z,19.50
2022-11-22T01:18:19.332Z,19.60
2022-11-22T01:19:19.327Z,18.80
2022-11-22T01:20:19.322Z,18.80
2022-11-22T01:21:19.292Z,17.80
2022-11-22T01:22:19.287Z,19.00
2022-11-22T01:23:19.288Z,20.00
2022-11-22T01:24:19.270Z,20.90
2022-11-22T01:25:19.266Z,20.90
2022-11-22T01:26:19.251Z,18.00
2022-11-22T01:27:19.226Z,18.20
2022-11-22T01:28:19.248Z,18.50
2022-11-22T01:29:19.205Z,17.70
2022-11-22T01:30:19.227Z,19.00
2022-11-22T01:31:19.201Z,19.10
2022-11-22T01:32:19.190Z,18.90
2022-11-22T01:33:19.163Z,20.20
2022-11-22T01:34:19.151Z,20.60
2022-11-22T01:35:19.157Z,19.80
2022-11-22T01:36:19.131Z,19.50
2022-11-22T01:37:19.160Z,19.90
2022-11-22T01:38:19.105Z,19.30
2022-11-22T01:39:19.105Z,19.70
2022-11-22T01:40:19.098Z,20.60
2022-11-22T01:41:19.076Z,19.30
2022-11-22T01:42:19.073Z,20.50
2022-11-22T01:43:19.054Z,22.60
2022-11-22T01:44:19.040Z,23.40
2022-11-22T01:45:19.056Z,18.40
2022-11-22T01:46:19.028Z,19.20
2022-11-22T01:47:19.007Z,18.70
2022-11-22T01:48:19.004Z,19.30
2022-11-22T01:49:18.993Z,20.90
2022-11-22T01:50:18.974Z,18.80
2022-11-22T01:51:18.996Z,20.30
2022-11-22T01:52:18.972Z,19.00
2022-11-22T01:53:18.942Z,19.90
2022-11-22T01:54:18.936Z,19.90
2022-11-22T01:55:18.916Z,18.90
2022-11-22T01:56:18.939Z,20.60
2022-11-22T01:57:18.890Z,19.90
2022-11-22T01:58:18.902Z,19.60
2022-11-22T01:59:18.889Z,20.20
2022-11-22T02:00:18.875Z,21.30
2022-11-22T02:01:18.914Z,21.60
2022-11-22T02:02:18.839Z,21.30
2022-11-22T02:03:18.845Z,19.60
2022-11-22T02:04:18.838Z,20.10
2022-11-22T02:05:18.824Z,21.90
2022-11-22T02:06:18.820Z,22.30
2022-11-22T02:07:18.843Z,23.00
2022-11-22T02:08:18.778Z,20.40
2022-11-22T02:09:18.768Z,18.60
2022-11-22T02:10:18.760Z,20.90
2022-11-22T02:11:18.768Z,19.60
2022-11-22T02:12:18.751Z,20.10
2022-11-22T02:13:18.731Z,19.90
2022-11-22T02:14:18.729Z,20.00
2022-11-22T02:15:18.712Z,19.60
2022-11-22T02:16:18.710Z,23.10
2022-11-22T02:17:18.692Z,22.30
2022-11-22T02:18:18.672Z,22.50
2022-11-22T02:19:18.664Z,19.50
2022-11-22T02:20:18.696Z,21.70
2022-11-22T02:21:18.670Z,20.10
2022-11-22T02:22:18.655Z,19.80
2022-11-22T02:23:18.630Z,19.30
2022-11-22T02:24:18.627Z,20.10
2022-11-22T02:25:18.604Z,20.60
2022-11-22T02:26:18.601Z,21.90
2022-11-22T02:27:18.586Z,21.10
2022-11-22T02:28:18.570Z,20.40
2022-11-22T02:29:18.566Z,21.20
2022-11-22T02:30:18.572Z,20.60
2022-11-22T02:31:18.564Z,20.40
2022-11-22T02:32:18.529Z,20.10
2022-11-22T02:33:18.522Z,20.60
2022-11-22T02:34:18.507Z,19.60
2022-11-22T02:35:18.530Z,22.50
2022-11-22T02:36:18.497Z,21.90
2022-11-22T02:37:18.486Z,21.00
2022-11-22T02:38:18.464Z,21.00
2022-11-22T02:39:19.447Z,19.60
2022-11-22T02:40:22.023Z,19.90
2022-11-22T02:41:18.459Z,19.40
2022-11-22T02:42:18.419Z,19.40
2022-11-22T02:43:18.409Z,19.90
2022-11-22T02:44:18.398Z,20.20
2022-11-22T02:45:18.379Z,21.50
2022-11-22T02:46:18.382Z,20.80
2022-11-22T02:47:18.356Z,21.40
2022-11-22T02:48:18.344Z,22.70
2022-11-22T02:49:18.362Z,24.10
2022-11-22T02:50:18.340Z,21.40
2022-11-22T02:51:18.328Z,21.00
2022-11-22T02:52:18.322Z,20.60
2022-11-22T02:53:18.302Z,20.50
2022-11-22T02:54:18.276Z,20.50
2022-11-22T02:55:18.271Z,21.70
2022-11-22T02:56:18.301Z,19.50
2022-11-22T02:57:18.272Z,21.60
2022-11-22T02:58:18.240Z,20.10
2022-11-22T02:59:18.224Z,21.20
2022-11-22T03:00:18.215Z,20.50
2022-11-22T03:01:18.290Z,22.30
2022-11-22T03:02:18.204Z,21.00
2022-11-22T03:03:18.189Z,23.80
2022-11-22T03:04:18.716Z,20.40
2022-11-22T03:05:18.162Z,21.30
2022-11-22T03:06:18.156Z,21.70
2022-11-22T03:07:18.171Z,21.50
2022-11-22T03:08:18.127Z,19.80
2022-11-22T03:09:18.135Z,20.60
2022-11-22T03:10:18.110Z,20.80
2022-11-22T03:11:18.111Z,22.20
2022-11-22T03:12:18.109Z,21.80
2022-11-22T03:13:18.068Z,23.30
2022-11-22T03:14:18.062Z,22.20
2022-11-22T03:15:18.053Z,22.40
2022-11-22T03:16:18.052Z,20.30
2022-11-22T03:17:18.042Z,21.90
2022-11-22T03:18:18.033Z,22.00
2022-11-22T03:19:18.008Z,21.60
2022-11-22T03:20:18.002Z,20.60
2022-11-22T03:21:18.015Z,21.10
2022-11-22T03:22:17.971Z,21.70
2022-11-22T03:23:17.993Z,23.40
2022-11-22T03:24:17.957Z,24.90
2022-11-22T03:25:17.951Z,23.50
2022-11-22T03:26:17.953Z,21.40
2022-11-22T03:27:17.929Z,21.70
2022-11-22T03:28:17.913Z,21.90
2022-11-22T03:29:17.892Z,22.10
2022-11-22T03:30:17.897Z,21.50
2022-11-22T03:31:17.927Z,20.50
2022-11-22T03:32:17.864Z,22.00
2022-11-22T03:33:17.861Z,21.70
2022-11-22T03:34:17.846Z,24.30
2022-11-22T03:35:17.836Z,24.10
2022-11-22T03:36:17.883Z,21.80
2022-11-22T03:37:17.833Z,21.00
2022-11-22T03:38:17.813Z,22.60
2022-11-22T03:39:17.837Z,22.40
2022-11-22T03:40:17.775Z,24.60
2022-11-22T03:41:17.795Z,21.20
2022-11-22T03:42:21.677Z,21.10
2022-11-22T03:43:17.737Z,21.00
2022-11-22T03:44:17.735Z,21.60
2022-11-22T03:45:17.719Z,22.90
2022-11-22T03:46:17.726Z,21.30
2022-11-22T03:47:17.708Z,22.00
2022-11-22T03:48:17.689Z,21.20
2022-11-22T03:49:17.692Z,23.90
2022-11-22T03:50:17.673Z,23.90
2022-11-22T03:51:17.680Z,23.30
2022-11-22T03:52:17.650Z,20.60
2022-11-22T03:53:17.632Z,21.40
2022-11-22T03:54:17.621Z,21.50
2022-11-22T03:55:17.612Z,20.40
2022-11-22T03:56:17.621Z,21.30
2022-11-22T03:57:17.594Z,20.80
2022-11-22T03:58:17.579Z,21.20
2022-11-22T03:59:17.564Z,23.50
2022-11-22T04:00:17.567Z,23.00
2022-11-22T04:01:17.614Z,22.50
2022-11-22T04:02:17.544Z,21.20
2022-11-22T04:03:17.531Z,20.30
2022-11-22T04:04:17.512Z,23.10
2022-11-22T04:05:17.503Z,19.80
2022-11-22T04:06:17.510Z,20.60
2022-11-22T04:07:17.504Z,21.00
2022-11-22T04:08:17.488Z,20.00
2022-11-22T04:09:17.543Z,23.30
2022-11-22T04:10:22.104Z,23.30
2022-11-22T04:11:17.481Z,22.50
2022-11-22T04:12:17.423Z,20.60
2022-11-22T04:13:17.417Z,20.00
2022-11-22T04:14:17.406Z,20.90
2022-11-22T04:15:17.413Z,20.40
2022-11-22T04:16:17.416Z,20.70
2022-11-22T04:17:17.374Z,21.00
2022-11-22T04:18:17.363Z,21.40
2022-11-22T04:19:17.360Z,22.10
2022-11-22T04:20:17.343Z,23.20
2022-11-22T04:21:17.343Z,23.90
2022-11-22T04:22:17.315Z,21.10
2022-11-22T04:23:23.894Z,19.70
2022-11-22T04:24:17.289Z,20.20
2022-11-22T04:25:17.280Z,20.40
2022-11-22T04:26:17.296Z,20.30
2022-11-22T04:27:17.263Z,20.20
2022-11-22T04:28:17.250Z,20.70
2022-11-22T04:29:17.235Z,21.10
2022-11-22T04:30:20.465Z,20.50
2022-11-22T04:31:17.233Z,21.50
2022-11-22T04:32:17.202Z,19.70
2022-11-22T04:33:17.188Z,22.10
2022-11-22T04:34:17.185Z,21.80
2022-11-22T04:35:17.180Z,23.10
2022-11-22T04:36:17.184Z,23.60
2022-11-22T04:37:17.152Z,19.00
2022-11-22T04:38:17.135Z,20.10
2022-11-22T04:39:17.127Z,19.50
2022-11-22T04:40:17.117Z,19.50
2022-11-22T04:41:17.112Z,21.60
2022-11-22T04:42:17.112Z,19.90
2022-11-22T04:43:17.087Z,20.30
2022-11-22T04:44:17.077Z,20.40
2022-11-22T04:45:17.066Z,19.90
2022-11-22T04:46:17.058Z,22.10
2022-11-22T04:47:17.071Z,22.30
2022-11-22T04:48:17.025Z,21.20
2022-11-22T04:49:17.022Z,21.20
2022-11-22T04:50:17.017Z,19.40
2022-11-22T04:51:16.997Z,18.70
2022-11-22T04:52:17.009Z,20.60
2022-11-22T04:53:16.994Z,20.90
2022-11-22T04:54:16.969Z,19.80
2022-11-22T04:55:16.955Z,20.00
2022-11-22T04:56:16.941Z,19.20
2022-11-22T04:57:16.947Z,21.10
2022-11-22T04:58:16.916Z,21.30
2022-11-22T04:59:16.910Z,22.00
2022-11-22T05:00:16.930Z,19.60
2022-11-22T05:01:16.919Z,19.50
2022-11-22T05:02:16.890Z,19.00
2022-11-22T05:03:16.863Z,19.80
2022-11-22T05:04:16.858Z,18.70
2022-11-22T05:05:16.844Z,19.40
2022-11-22T05:06:16.841Z,20.80
2022-11-22T05:07:16.911Z,21.30
2022-11-22T05:08:16.804Z,21.70
2022-11-22T05:09:16.799Z,21.80
2022-11-22T05:10:21.296Z,22.80
2022-11-22T05:11:16.787Z,22.00
2022-11-22T05:12:16.800Z,21.80
2022-11-22T05:13:16.756Z,22.20
2022-11-22T05:14:16.744Z,22.80
2022-11-22T05:15:16.734Z,21.50
2022-11-22T05:16:16.729Z,20.80
2022-11-22T05:17:16.727Z,19.40
2022-11-22T05:18:16.712Z,19.50
2022-11-22T05:19:16.691Z,20.70
2022-11-22T05:20:16.679Z,19.70
2022-11-22T05:21:16.673Z,18.70
2022-11-22T05:22:16.681Z,22.40
2022-11-22T05:23:16.645Z,21.70
2022-11-22T05:24:16.633Z,22.00
2022-11-22T05:25:19.242Z,22.30
2022-11-22T05:26:16.630Z,22.50
2022-11-22T05:27:16.614Z,22.70
2022-11-22T05:28:16.597Z,21.70
2022-11-22T05:29:16.579Z,21.90
2022-11-22T05:30:16.580Z,21.90
2022-11-22T05:31:16.553Z,21.80
2022-11-22T05:32:16.572Z,21.60
2022-11-22T05:33:16.537Z,19.20
2022-11-22T05:34:16.524Z,19.30
2022-11-22T05:35:16.520Z,19.40
2022-11-22T05:36:16.504Z,19.00
2022-11-22T05:37:16.507Z,19.80
2022-11-22T05:38:16.481Z,23.10
2022-11-22T05:39:16.468Z,21.60
2022-11-22T05:40:16.459Z,23.00
2022-11-22T05:41:16.459Z,22.70
2022-11-22T05:42:16.456Z,22.10
2022-11-22T05:43:16.427Z,22.70
2022-11-22T05:44:16.417Z,21.80
2022-11-22T05:45:16.417Z,22.70
2022-11-22T05:46:22.325Z,22.80
2022-11-22T05:47:16.405Z,23.30
2022-11-22T05:48:16.371Z,22.40
2022-11-22T05:49:16.386Z,22.60
2022-11-22T05:50:16.366Z,22.70
2022-11-22T05:51:16.358Z,22.40
2022-11-22T05:52:16.345Z,21.50
2022-11-22T05:53:16.317Z,21.90
2022-11-22T05:54:16.309Z,20.60
2022-11-22T05:55:16.292Z,21.50
2022-11-22T05:56:16.288Z,20.40
2022-11-22T05:57:16.307Z,20.70
2022-11-22T05:58:16.275Z,19.10
2022-11-22T05:59:16.264Z,21.00
2022-11-22T06:00:16.250Z,20.80
2022-11-22T06:01:16.242Z,20.30
2022-11-22T06:02:16.283Z,20.90
2022-11-22T06:03:16.210Z,18.90
2022-11-22T06:04:16.203Z,21.40
2022-11-22T06:05:16.217Z,21.80
2022-11-22T06:06:16.186Z,21.00
2022-11-22T06:07:16.285Z,20.70
2022-11-22T06:08:16.172Z,20.70
2022-11-22T06:09:16.144Z,20.00
2022-11-22T06:10:16.158Z,19.30
2022-11-22T06:11:16.124Z,17.60
2022-11-22T06:12:16.135Z,19.30
2022-11-22T06:13:16.111Z,19.00
2022-11-22T06:14:16.100Z,18.80
2022-11-22T06:15:16.089Z,18.10
2022-11-22T06:16:16.068Z,19.30
2022-11-22T06:17:16.079Z,19.90
2022-11-22T06:18:16.047Z,19.80
2022-11-22T06:19:16.052Z,19.40
2022-11-22T06:20:16.023Z,20.00
2022-11-22T06:21:16.006Z,20.50
2022-11-22T06:22:16.023Z,20.60
2022-11-22T06:23:15.993Z,20.00
2022-11-22T06:24:15.989Z,20.80
2022-11-22T06:25:15.968Z,20.00
2022-11-22T06:26:15.956Z,20.80
2022-11-22T06:27:15.963Z,21.00
2022-11-22T06:28:15.949Z,20.80
2022-11-22T06:29:15.926Z,20.00
2022-11-22T06:30:15.914Z,20.50
2022-11-22T06:31:15.901Z,20.70
2022-11-22T06:32:15.904Z,18.40
2022-11-22T06:33:15.878Z,19.00
2022-11-22T06:34:15.871Z,18.60
2022-11-22T06:35:15.854Z,19.10
2022-11-22T06:36:15.840Z,18.20
2022-11-22T06:37:15.847Z,19.70
2022-11-22T06:38:15.833Z,20.60
2022-11-22T06:39:15.820Z,19.80
2022-11-22T06:40:15.805Z,21.30
2022-11-22T06:41:15.792Z,21.00
2022-11-22T06:42:15.795Z,20.60
2022-11-22T06:43:15.783Z,21.10
2022-11-22T06:44:15.768Z,20.70
2022-11-22T06:45:15.755Z,19.90
2022-11-22T06:46:15.741Z,20.60
2022-11-22T06:47:15.746Z,20.90
2022-11-22T06:48:15.719Z,20.80
2022-11-22T06:49:15.707Z,21.80
2022-11-22T06:50:21.462Z,21.80
2022-11-22T06:51:15.695Z,20.80
2022-11-22T06:52:15.686Z,21.60
2022-11-22T06:53:32.683Z,21.20
2022-11-22T06:54:15.657Z,20.60
2022-11-22T06:55:42.512Z,20.30
2022-11-22T06:56:15.636Z,20.70
2022-11-22T06:57:15.630Z,21.40
2022-11-22T06:58:15.604Z,20.10
2022-11-22T06:59:15.602Z,19.70
2022-11-22T07:00:15.581Z,20.40
2022-11-22T07:01:15.612Z,19.80
2022-11-22T07:02:15.591Z,21.30
2022-11-22T07:03:15.554Z,20.10
2022-11-22T07:04:15.540Z,21.20
2022-11-22T07:05:25.481Z,20.60
2022-11-22T07:06:15.535Z,20.40
2022-11-22T07:07:15.547Z,20.20
2022-11-22T07:08:15.523Z,20.50
2022-11-22T07:09:15.480Z,20.10
2022-11-22T07:10:15.481Z,19.70
2022-11-22T07:11:15.468Z,20.60
2022-11-22T07:12:15.492Z,19.40
2022-11-22T07:13:15.462Z,19.90
2022-11-22T07:14:15.442Z,20.30
2022-11-22T07:15:15.439Z,21.60
2022-11-22T07:16:15.423Z,19.60
2022-11-22T07:17:15.417Z,19.20
2022-11-22T07:18:15.393Z,19.80
2022-11-22T07:19:15.387Z,19.80
2022-11-22T07:20:15.373Z,20.40
2022-11-22T07:21:15.362Z,21.70
2022-11-22T07:22:15.365Z,22.40
2022-11-22T07:23:15.337Z,21.80
2022-11-22T07:24:15.343Z,21.00
2022-11-22T07:25:15.315Z,20.30
2022-11-22T07:26:15.302Z,21.70
2022-11-22T07:27:15.335Z,22.00
2022-11-22T07:28:15.285Z,21.70
2022-11-22T07:29:15.282Z,21.40
2022-11-22T07:30:15.256Z,21.30
2022-11-22T07:31:15.244Z,21.80
2022-11-22T07:32:15.261Z,21.30
2022-11-22T07:33:15.232Z,20.30
2022-11-22T07:34:15.217Z,22.20
2022-11-22T07:35:15.208Z,21.80
2022-11-22T07:36:15.210Z,21.10
2022-11-22T07:37:15.207Z,21.20
2022-11-22T07:38:15.179Z,21.10
2022-11-22T07:39:15.163Z,20.30
2022-11-22T07:40:15.155Z,21.50
2022-11-22T07:41:15.138Z,21.10
2022-11-22T07:42:15.150Z,21.50
2022-11-22T07:43:15.119Z,20.90
2022-11-22T07:44:15.101Z,21.30
2022-11-22T07:45:15.096Z,21.20
2022-11-22T07:46:15.089Z,19.90
2022-11-22T07:47:19.808Z,22.30
2022-11-22T07:48:15.092Z,21.50
2022-11-22T07:49:15.056Z,22.00
2022-11-22T07:50:15.053Z,20.90
2022-11-22T07:51:15.032Z,21.00
2022-11-22T07:52:15.019Z,20.50
2022-11-22T07:53:15.034Z,21.20
2022-11-22T07:54:14.997Z,21.00
2022-11-22T07:55:14.990Z,20.90
2022-11-22T07:56:15.055Z,21.80
2022-11-22T07:57:14.963Z,20.40
2022-11-22T07:58:14.962Z,21.30
2022-11-22T07:59:14.949Z,21.10
2022-11-22T08:00:14.946Z,21.60
2022-11-22T08:01:14.960Z,20.80
2022-11-22T08:02:14.915Z,21.70
2022-11-22T08:03:17.777Z,21.10
2022-11-22T08:04:14.895Z,21.30
2022-11-22T08:05:14.885Z,20.50
2022-11-22T08:06:14.880Z,20.90
2022-11-22T08:07:14.915Z,21.20
2022-11-22T08:08:14.862Z,20.90
2022-11-22T08:09:15.324Z,20.00
2022-11-22T08:10:14.987Z,21.60
2022-11-22T08:11:14.814Z,21.60
2022-11-22T08:12:14.825Z,22.90
2022-11-22T08:13:14.800Z,20.80
2022-11-22T08:14:14.782Z,20.90
2022-11-22T08:15:14.760Z,19.60
2022-11-22T08:16:14.755Z,21.00
2022-11-22T08:17:14.755Z,21.30
2022-11-22T08:18:14.749Z,21.40
2022-11-22T08:19:14.740Z,21.90
2022-11-22T08:20:14.719Z,20.20
2022-11-22T08:21:14.705Z,21.50
2022-11-22T08:22:14.696Z,22.20
2022-11-22T08:23:14.702Z,22.20
2022-11-22T08:24:14.674Z,23.30
2022-11-22T08:25:14.668Z,22.20
2022-11-22T08:26:14.638Z,21.60
2022-11-22T08:27:14.639Z,20.90
2022-11-22T08:28:14.648Z,22.20
2022-11-22T08:29:14.793Z,22.60
2022-11-22T08:30:14.607Z,22.20
2022-11-22T08:31:14.590Z,21.10
2022-11-22T08:32:14.585Z,21.60
2022-11-22T08:33:14.580Z,19.70
2022-11-22T08:34:14.551Z,21.30
2022-11-22T08:35:14.543Z,21.10
2022-11-22T08:36:14.549Z,21.60
2022-11-22T08:37:14.522Z,22.30
2022-11-22T08:38:14.541Z,22.00
2022-11-22T08:39:14.523Z,22.20
2022-11-22T08:40:14.502Z,21.50
2022-11-22T08:41:14.515Z,22.00
2022-11-22T08:42:14.473Z,21.60
2022-11-22T08:43:14.484Z,21.30
2022-11-22T08:44:14.443Z,21.80
2022-11-22T08:45:14.434Z,21.30
2022-11-22T08:46:14.421Z,21.30
2022-11-22T08:47:14.415Z,21.40
2022-11-22T08:48:19.092Z,20.30
2022-11-22T08:49:14.409Z,21.30
2022-11-22T08:50:14.382Z,22.20
2022-11-22T08:51:14.376Z,22.10
2022-11-22T08:52:14.352Z,21.50
2022-11-22T08:53:14.359Z,21.50
2022-11-22T08:54:14.401Z,20.50
2022-11-22T08:55:14.347Z,21.10
2022-11-22T08:56:14.320Z,20.30
2022-11-22T08:57:14.333Z,20.30
2022-11-22T08:58:14.323Z,22.10
2022-11-22T08:59:14.357Z,22.40
2022-11-22T09:00:14.280Z,21.70
2022-11-22T09:01:14.413Z,22.20
2022-11-22T09:02:14.263Z,21.60
2022-11-22T09:03:14.260Z,20.70
2022-11-22T09:04:14.246Z,21.40
2022-11-22T09:05:14.221Z,20.40
2022-11-22T09:10:14.168Z,20.70
2022-11-22T09:11:14.166Z,21.30
2022-11-22T09:12:14.143Z,22.80
2022-11-22T09:13:14.146Z,20.90
2022-11-22T09:14:14.125Z,21.60
2022-11-22T09:15:14.114Z,23.20
2022-11-22T09:16:14.093Z,21.90
2022-11-22T09:17:17.890Z,22.10
2022-11-22T09:18:14.090Z,21.70
2022-11-22T09:19:14.068Z,22.00
2022-11-22T09:20:14.050Z,22.10
2022-11-22T09:21:14.036Z,20.70
2022-11-22T09:22:14.040Z,23.00
2022-11-22T09:23:14.039Z,22.40
2022-11-22T09:24:14.013Z,22.20
2022-11-22T09:25:14.002Z,22.60
2022-11-22T09:26:13.992Z,22.50
2022-11-22T09:27:13.969Z,21.90
2022-11-22T09:28:13.981Z,22.30
2022-11-22T09:29:13.954Z,20.90
2022-11-22T09:30:13.953Z,22.00
2022-11-22T09:31:13.928Z,22.40
2022-11-22T09:32:13.919Z,21.80
2022-11-22T09:33:13.929Z,21.60
2022-11-22T09:34:13.919Z,22.10
2022-11-22T09:35:13.895Z,22.50
2022-11-22T09:36:13.875Z,22.10
2022-11-22T09:37:13.867Z,21.60
2022-11-22T09:38:13.865Z,22.20
2022-11-22T09:39:13.843Z,21.10
2022-11-22T09:40:13.833Z,21.30
2022-11-22T09:41:13.821Z,22.50
2022-11-22T09:42:13.823Z,22.40
2022-11-22T09:43:13.822Z,21.90
2022-11-22T09:44:13.785Z,21.90
2022-11-22T09:45:13.813Z,21.70
2022-11-22T09:46:13.778Z,21.80
2022-11-22T09:47:14.766Z,21.20
2022-11-22T09:48:13.772Z,21.20
2022-11-22T09:49:13.731Z,21.30
2022-11-22T09:50:13.724Z,20.80
2022-11-22T09:51:13.705Z,21.10
2022-11-22T09:52:13.698Z,20.60
2022-11-22T09:53:13.712Z,21.30
2022-11-22T09:54:13.681Z,20.30
2022-11-22T09:55:13.668Z,18.70
2022-11-22T09:56:13.656Z,20.10
2022-11-22T09:57:13.637Z,20.10
2022-11-22T09:58:13.666Z,20.90
2022-11-22T09:59:13.624Z,19.30
2022-11-22T10:00:13.614Z,20.60
2022-11-22T10:01:13.659Z,20.40
2022-11-22T10:02:18.750Z,19.40
2022-11-22T10:03:13.627Z,20.40
2022-11-22T10:04:13.571Z,20.00
2022-11-22T10:05:13.550Z,21.00
2022-11-22T10:06:13.548Z,20.50
2022-11-22T10:07:13.590Z,20.20
2022-11-22T10:08:13.551Z,20.70
2022-11-22T10:09:13.509Z,21.10
2022-11-22T10:10:13.511Z,20.20
2022-11-22T10:11:13.491Z,20.40
2022-11-22T10:12:13.477Z,19.70
2022-11-22T10:13:13.487Z,19.90
2022-11-22T10:14:13.459Z,20.60
2022-11-22T10:15:13.454Z,19.50
2022-11-22T10:16:13.430Z,20.50
2022-11-22T10:17:13.426Z,19.20
2022-11-22T10:18:13.421Z,19.80
2022-11-22T10:19:13.423Z,19.30
2022-11-22T10:20:13.441Z,20.40
2022-11-22T10:21:13.380Z,20.40
2022-11-22T10:22:13.379Z,19.10
2022-11-22T10:23:13.377Z,18.80
2022-11-22T10:24:13.351Z,19.90
2022-11-22T10:25:13.344Z,18.70
2022-11-22T10:26:13.347Z,19.80
2022-11-22T10:27:13.316Z,19.20
2022-11-22T10:28:13.315Z,19.50
2022-11-22T10:29:13.301Z,19.20
2022-11-22T10:30:13.285Z,19.40
2022-11-22T10:31:13.277Z,20.00
2022-11-22T10:32:13.256Z,18.70
2022-11-22T10:33:13.265Z,18.90
2022-11-22T10:34:13.233Z,18.90
2022-11-22T10:35:13.251Z,20.10
2022-11-22T10:36:13.223Z,19.40
2022-11-22T10:37:13.204Z,18.80
2022-11-22T10:38:13.214Z,18.60
2022-11-22T10:39:13.189Z,19.20
2022-11-22T10:40:13.174Z,19.90
2022-11-22T10:41:13.177Z,18.70
2022-11-22T10:42:13.155Z,18.70
2022-11-22T10:43:13.158Z,19.10
2022-11-22T10:44:13.144Z,18.60
2022-11-22T10:45:13.109Z,18.90
2022-11-22T10:46:13.107Z,19.30
2022-11-22T10:47:13.108Z,18.80
2022-11-22T10:48:13.105Z,18.60
2022-11-22T10:49:13.082Z,18.40
2022-11-22T10:50:13.060Z,20.10
2022-11-22T10:51:13.055Z,18.70
2022-11-22T10:52:13.043Z,17.10
2022-11-22T10:53:13.047Z,17.80
2022-11-22T10:54:13.023Z,17.90
2022-11-22T10:55:13.006Z,18.40
2022-11-22T10:56:13.000Z,17.70
2022-11-22T10:57:13.050Z,18.80
2022-11-22T10:58:13.007Z,18.40
2022-11-22T10:59:12.974Z,17.80
2022-11-22T11:00:12.971Z,18.50
2022-11-22T11:01:13.006Z,18.20
2022-11-22T11:02:12.933Z,18.00
2022-11-22T11:03:12.940Z,18.90
2022-11-22T11:04:13.485Z,17.70
2022-11-22T11:05:12.916Z,18.00
2022-11-22T11:06:26.286Z,19.00
2022-11-22T11:07:13.236Z,18.90
2022-11-22T11:08:38.968Z,19.20
2022-11-22T11:10:03.020Z,18.50
2022-11-22T11:10:21.608Z,19.40
2022-11-22T11:11:12.847Z,19.10
2022-11-22T11:12:12.825Z,18.50
2022-11-22T11:13:12.824Z,17.50
2022-11-22T11:14:12.803Z,17.80
2022-11-22T11:15:12.792Z,17.30
2022-11-22T11:16:12.788Z,20.10
2022-11-22T11:17:12.768Z,20.90
2022-11-22T11:18:12.775Z,19.00
2022-11-22T11:19:12.757Z,19.50
2022-11-22T11:20:12.738Z,19.50
2022-11-22T11:21:12.726Z,17.50
2022-11-22T11:22:12.724Z,17.60
2022-11-22T11:23:15.460Z,18.00
2022-11-22T11:24:12.693Z,16.70
2022-11-22T11:25:12.699Z,18.50
2022-11-22T11:26:12.677Z,17.30
2022-11-22T11:27:12.658Z,17.00
2022-11-22T11:28:12.663Z,16.90
2022-11-22T11:29:12.638Z,17.90
2022-11-22T11:30:12.627Z,16.90
2022-11-22T11:31:12.606Z,16.60
2022-11-22T11:32:12.602Z,16.50
2022-11-22T11:33:12.626Z,17.20
2022-11-22T11:34:12.576Z,17.40
2022-11-22T11:35:12.572Z,17.40
2022-11-22T11:36:12.562Z,16.80
2022-11-22T11:37:12.549Z,16.60
2022-11-22T11:38:12.568Z,16.50
2022-11-22T11:39:12.539Z,17.40
2022-11-22T11:40:12.516Z,16.00
2022-11-22T11:41:12.504Z,17.50
2022-11-22T11:42:12.501Z,16.40
2022-11-22T11:43:12.503Z,18.10
2022-11-22T11:44:12.489Z,17.40
2022-11-22T11:45:12.470Z,18.10
2022-11-22T11:46:12.463Z,17.10
2022-11-22T11:47:12.424Z,17.40
2022-11-22T11:48:12.436Z,17.80
2022-11-22T11:49:12.416Z,17.40
2022-11-22T11:50:12.402Z,17.00
2022-11-22T11:51:12.396Z,17.30
2022-11-22T11:52:12.382Z,17.30
2022-11-22T11:53:12.379Z,16.90
2022-11-22T11:54:12.366Z,17.50
2022-11-22T11:55:12.347Z,17.10
2022-11-22T11:56:12.339Z,17.90
2022-11-22T11:57:12.335Z,15.60
2022-11-22T11:58:16.245Z,17.70
2022-11-22T11:59:12.322Z,16.00
2022-11-22T12:00:12.295Z,17.90
2022-11-22T12:01:12.307Z,17.30
2022-11-22T12:02:12.326Z,17.00
2022-11-22T12:03:12.267Z,16.40
2022-11-22T12:04:12.269Z,16.60
2022-11-22T12:05:12.261Z,17.30
2022-11-22T12:06:12.237Z,17.40
2022-11-22T12:07:12.287Z,16.60
2022-11-22T12:08:12.200Z,17.10
2022-11-22T12:09:12.210Z,17.70
2022-11-22T12:10:12.249Z,16.50
2022-11-22T12:11:12.182Z,16.50
2022-11-22T12:12:12.169Z,17.90
2022-11-22T12:13:12.157Z,17.50
2022-11-22T12:14:20.072Z,16.70
2022-11-22T12:15:12.528Z,17.80
2022-11-22T12:16:12.115Z,17.30
2022-11-22T12:17:12.109Z,18.70
2022-11-22T12:18:12.086Z,16.90
2022-11-22T12:19:12.103Z,16.10
2022-11-22T12:20:12.067Z,17.30
2022-11-22T12:21:12.066Z,19.20
2022-11-22T12:22:19.819Z,19.00
2022-11-22T12:23:12.050Z,16.60
2022-11-22T12:24:45.557Z,19.80
2022-11-22T12:48:22.570Z,19.10
2022-11-22T12:48:27.547Z,18.50
2022-11-22T12:48:32.541Z,17.90
2022-11-22T12:49:32.559Z,19.60
2022-11-22T12:50:32.538Z,20.10
2022-11-22T12:51:32.520Z,17.70
2022-11-22T12:52:32.496Z,17.80
2022-11-22T12:53:32.491Z,18.40
2022-11-22T12:54:32.830Z,19.00
2022-11-22T12:55:32.468Z,19.70
2022-11-22T12:56:33.878Z,19.00
2022-11-22T12:57:32.441Z,18.60
2022-11-22T12:58:32.451Z,19.00
2022-11-22T12:59:32.408Z,18.30
2022-11-22T13:00:32.426Z,17.90
2022-11-22T13:01:32.483Z,18.70
2022-11-22T13:02:32.377Z,18.70
2022-11-22T13:03:32.393Z,18.30
2022-11-22T13:04:32.766Z,18.60
2022-11-22T13:05:32.344Z,18.90
2022-11-22T13:06:32.352Z,18.40
2022-11-22T13:07:32.418Z,20.00
2022-11-22T13:08:32.337Z,19.50
2022-11-22T13:09:32.314Z,19.00
2022-11-22T13:10:32.293Z,19.60
2022-11-22T13:11:32.296Z,20.10
2022-11-22T13:12:32.274Z,19.40
2022-11-22T13:13:32.284Z,19.90
2022-11-22T13:14:32.618Z,18.10
2022-11-22T13:15:32.260Z,18.40
2022-11-22T13:16:32.219Z,18.30
2022-11-22T13:17:32.221Z,19.50